createdAt,value
2023-03-10T00:01:44.031Z,100.00
2023-03-10T00:04:10.346Z,100.00
2023-03-10T00:06:36.654Z,100.00
2023-03-10T00:09:03.108Z,100.00
2023-03-10T00:11:29.461Z,100.00
2023-03-10T00:13:55.808Z,100.00
2023-03-10T00:16:24.173Z,100.00
2023-03-10T00:18:50.585Z,100.00
2023-03-10T00:21:18.635Z,100.00
2023-03-10T00:23:45.068Z,100.00
2023-03-10T00:26:12.872Z,100.00
2023-03-10T00:28:39.608Z,100.00
2023-03-10T00:31:13.143Z,100.00
2023-03-10T00:33:39.714Z,100.00
2023-03-10T00:36:13.553Z,100.00
2023-03-10T00:38:40.598Z,100.00
2023-03-10T00:41:08.296Z,100.00
2023-03-10T00:43:34.649Z,100.00
2023-03-10T00:46:01.660Z,100.00
2023-03-10T00:48:28.303Z,100.00
2023-03-10T00:50:56.093Z,100.00
2023-03-10T00:53:22.443Z,100.00
2023-03-10T00:55:58.919Z,100.00
2023-03-10T00:58:25.513Z,100.00
2023-03-10T01:00:51.871Z,100.00
2023-03-10T01:03:18.182Z,100.00
2023-03-10T01:05:44.486Z,100.00
2023-03-10T01:08:10.795Z,100.00
2023-03-10T01:10:37.108Z,100.00
2023-03-10T01:13:03.607Z,100.00
2023-03-10T01:15:29.975Z,100.00
2023-03-10T01:17:56.364Z,100.00
2023-03-10T01:20:22.706Z,100.00
2023-03-10T01:22:49.035Z,100.00
2023-03-10T01:25:15.414Z,100.00
2023-03-10T01:27:42.012Z,100.00
2023-03-10T01:30:09.391Z,100.00
2023-03-10T01:32:36.034Z,100.00
2023-03-10T01:35:02.998Z,100.00
2023-03-10T01:37:30.760Z,100.00
2023-03-10T01:39:57.092Z,100.00
2023-03-10T01:42:23.502Z,100.00
2023-03-10T01:45:10.278Z,100.00
2023-03-10T01:47:36.589Z,100.00
2023-03-10T01:50:04.396Z,100.00
2023-03-10T01:52:32.804Z,100.00
2023-03-10T01:55:11.108Z,100.00
2023-03-10T01:57:41.094Z,100.00
2023-03-10T02:00:08.263Z,100.00
2023-03-10T02:02:46.993Z,100.00
2023-03-10T02:05:14.087Z,100.00
2023-03-10T02:07:41.467Z,100.00
2023-03-10T02:10:09.394Z,100.00
2023-03-10T02:12:35.737Z,100.00
2023-03-10T02:15:02.245Z,100.00
2023-03-10T02:17:30.368Z,100.00
2023-03-10T02:20:08.955Z,100.00
2023-03-10T02:22:37.069Z,100.00
2023-03-10T02:25:20.132Z,100.00
2023-03-10T02:27:46.607Z,100.00
2023-03-10T02:30:12.896Z,100.00
2023-03-10T02:32:42.410Z,100.00
2023-03-10T02:35:09.436Z,100.00
2023-03-10T02:37:40.764Z,100.00
2023-03-10T02:40:22.618Z,100.00
2023-03-10T02:42:49.060Z,100.00
2023-03-10T02:45:15.747Z,100.00
2023-03-10T02:47:42.042Z,100.00
2023-03-10T02:50:09.934Z,100.00
2023-03-10T02:52:43.989Z,100.00
2023-03-10T02:55:14.777Z,100.00
2023-03-10T02:57:41.227Z,100.00
2023-03-10T03:00:07.978Z,100.00
2023-03-10T03:02:34.389Z,100.00
2023-03-10T03:05:00.765Z,100.00
2023-03-10T03:07:27.481Z,100.00
2023-03-10T03:09:53.965Z,100.00
2023-03-10T03:12:20.277Z,100.00
2023-03-10T03:14:46.628Z,100.00
2023-03-10T03:17:13.158Z,100.00
2023-03-10T03:19:39.892Z,100.00
2023-03-10T03:22:06.190Z,100.00
2023-03-10T03:24:32.589Z,100.00
2023-03-10T03:26:58.956Z,100.00
2023-03-10T03:29:26.777Z,100.00
2023-03-10T03:31:53.336Z,100.00
2023-03-10T03:34:23.033Z,100.00
2023-03-10T03:36:51.791Z,100.00
2023-03-10T03:39:21.985Z,100.00
2023-03-10T03:41:51.444Z,100.00
2023-03-10T03:44:18.141Z,100.00
2023-03-10T03:46:44.546Z,100.00
2023-03-10T03:49:10.931Z,100.00
2023-03-10T03:51:37.427Z,100.00
2023-03-10T03:54:04.228Z,100.00
2023-03-10T03:56:32.741Z,100.00
2023-03-10T03:59:00.152Z,100.00
2023-03-10T04:01:26.882Z,100.00
2023-03-10T04:03:54.470Z,100.00
2023-03-10T04:06:21.412Z,100.00
2023-03-10T04:08:50.926Z,100.00
2023-03-10T04:11:17.964Z,100.00
2023-03-10T04:13:46.939Z,100.00
2023-03-10T04:16:13.690Z,100.00
2023-03-10T04:18:40.318Z,100.00
2023-03-10T04:21:07.341Z,100.00
2023-03-10T04:23:34.119Z,100.00
2023-03-10T04:26:00.749Z,100.00
2023-03-10T04:28:28.448Z,100.00
2023-03-10T04:30:55.169Z,100.00
2023-03-10T04:33:23.067Z,100.00
2023-03-10T04:35:49.957Z,100.00
2023-03-10T04:38:16.868Z,100.00
2023-03-10T04:40:44.162Z,100.00
2023-03-10T04:43:10.870Z,100.00
2023-03-10T04:45:37.690Z,100.00
2023-03-10T04:48:04.142Z,100.00
2023-03-10T04:50:30.493Z,100.00
2023-03-10T04:52:57.373Z,100.00
2023-03-10T04:55:26.310Z,100.00
2023-03-10T04:57:52.819Z,100.00
2023-03-10T05:00:19.231Z,100.00
2023-03-10T05:02:46.130Z,100.00
2023-03-10T05:05:12.959Z,100.00
2023-03-10T05:07:41.150Z,100.00
2023-03-10T05:10:08.298Z,100.00
2023-03-10T05:12:36.507Z,100.00
2023-03-10T05:15:02.918Z,100.00
2023-03-10T05:17:29.413Z,100.00
2023-03-10T05:19:59.329Z,100.00
2023-03-10T05:22:26.040Z,100.00
2023-03-10T05:24:52.459Z,100.00
2023-03-10T05:27:18.854Z,100.00
2023-03-10T05:29:45.318Z,100.00
2023-03-10T05:32:17.572Z,100.00
2023-03-10T05:34:45.767Z,100.00
2023-03-10T05:37:12.326Z,100.00
2023-03-10T05:39:38.973Z,100.00
2023-03-10T05:42:09.467Z,100.00
2023-03-10T05:44:36.113Z,100.00
2023-03-10T05:47:04.507Z,100.00
2023-03-10T05:49:31.018Z,100.00
2023-03-10T05:51:57.917Z,100.00
2023-03-10T05:54:24.646Z,100.00
2023-03-10T05:56:51.284Z,100.00
2023-03-10T05:59:19.656Z,100.00
2023-03-10T06:01:45.965Z,100.00
2023-03-10T06:04:12.289Z,100.00
2023-03-10T06:06:38.612Z,100.00
2023-03-10T06:09:04.941Z,100.00
2023-03-10T06:11:31.375Z,100.00
2023-03-10T06:13:57.633Z,100.00
2023-03-10T06:16:24.113Z,100.00
2023-03-10T06:18:53.996Z,100.00
2023-03-10T06:21:20.492Z,100.00
2023-03-10T06:23:46.912Z,100.00
2023-03-10T06:26:14.510Z,100.00
2023-03-10T06:28:42.209Z,100.00
2023-03-10T06:31:12.204Z,100.00
2023-03-10T06:33:39.041Z,100.00
2023-03-10T06:36:05.553Z,100.00
2023-03-10T06:38:32.002Z,100.00
2023-03-10T06:40:58.335Z,100.00
2023-03-10T06:43:25.025Z,100.00
2023-03-10T06:45:51.435Z,100.00
2023-03-10T06:48:17.845Z,100.00
2023-03-10T06:50:47.224Z,100.00
2023-03-10T06:53:14.028Z,100.00
2023-03-10T06:55:40.297Z,100.00
2023-03-10T06:58:06.631Z,100.00
2023-03-10T07:00:32.958Z,100.00
2023-03-10T07:02:59.312Z,100.00
2023-03-10T07:05:25.824Z,100.00
2023-03-10T07:07:53.126Z,100.00
2023-03-10T07:10:20.493Z,100.00
2023-03-10T07:12:46.918Z,100.00
2023-03-10T07:15:13.216Z,100.00
2023-03-10T07:17:39.488Z,100.00
2023-03-10T07:20:06.547Z,100.00
2023-03-10T07:22:32.817Z,100.00
2023-03-10T07:24:59.213Z,100.00
2023-03-10T07:27:25.552Z,100.00
2023-03-10T07:29:51.824Z,100.00
2023-03-10T07:32:18.149Z,100.00
2023-03-10T07:34:44.585Z,100.00
2023-03-10T07:37:10.862Z,100.00
2023-03-10T07:39:37.185Z,100.00
2023-03-10T07:42:03.530Z,100.00
2023-03-10T07:44:31.820Z,100.00
2023-03-10T07:46:58.122Z,100.00
2023-03-10T07:49:24.553Z,100.00
2023-03-10T07:51:51.010Z,100.00
2023-03-10T07:54:17.377Z,100.00
2023-03-10T07:56:43.700Z,100.00
2023-03-10T07:59:10.120Z,100.00
2023-03-10T08:01:37.010Z,100.00
2023-03-10T08:04:03.617Z,100.00
2023-03-10T08:06:30.124Z,100.00
2023-03-10T08:08:56.429Z,100.00
2023-03-10T08:11:22.744Z,100.00
2023-03-10T08:13:49.752Z,100.00
2023-03-10T08:16:17.591Z,100.00
2023-03-10T08:18:43.913Z,99.80
2023-03-10T08:21:10.711Z,98.50
2023-03-10T08:23:37.138Z,96.28
2023-03-10T08:26:05.381Z,97.06
2023-03-10T08:28:32.259Z,97.13
2023-03-10T08:31:04.897Z,97.32
2023-03-10T08:33:31.958Z,97.08
2023-03-10T08:36:13.153Z,96.53
2023-03-10T08:38:40.170Z,96.78
2023-03-10T08:41:20.643Z,95.70
2023-03-10T08:43:49.261Z,95.26
2023-03-10T08:46:16.517Z,93.52
2023-03-10T08:48:43.193Z,93.26
2023-03-10T08:51:10.084Z,93.19
2023-03-10T08:53:37.335Z,92.45
2023-03-10T08:56:04.296Z,92.23
2023-03-10T08:58:31.038Z,91.83
2023-03-10T09:00:57.545Z,92.21
2023-03-10T09:03:24.082Z,91.57
2023-03-10T09:05:51.080Z,91.67
2023-03-10T09:08:17.638Z,91.26
2023-03-10T09:10:44.452Z,91.50
2023-03-10T09:13:14.282Z,91.18
2023-03-10T09:15:41.451Z,90.33
2023-03-10T09:18:08.526Z,90.14
2023-03-10T09:20:35.695Z,89.58
2023-03-10T09:23:02.688Z,89.75
2023-03-10T09:25:29.197Z,88.87
2023-03-10T09:27:55.576Z,88.29
2023-03-10T09:30:21.993Z,87.77
2023-03-10T09:32:48.693Z,86.63
2023-03-10T09:35:15.198Z,85.33
2023-03-10T09:37:41.559Z,84.95
2023-03-10T09:40:11.425Z,84.20
2023-03-10T09:42:44.460Z,84.48
2023-03-10T09:45:21.023Z,83.19
2023-03-10T09:47:52.525Z,82.56
2023-03-10T09:50:23.042Z,80.23
2023-03-10T09:53:25.061Z,80.59
2023-03-10T09:55:51.446Z,78.62
2023-03-10T09:58:38.074Z,77.85
2023-03-10T10:01:05.819Z,77.64
2023-03-10T10:03:52.120Z,77.12
2023-03-10T10:06:39.722Z,73.63
2023-03-10T10:09:14.188Z,72.02
2023-03-10T10:11:40.581Z,72.72
2023-03-10T10:14:15.907Z,72.20
2023-03-10T10:16:45.168Z,72.59
2023-03-10T10:19:25.299Z,72.00
2023-03-10T10:22:02.070Z,71.83
2023-03-10T10:24:28.613Z,71.79
2023-03-10T10:26:54.939Z,68.99
2023-03-10T10:29:22.509Z,68.80
2023-03-10T10:32:01.479Z,67.23
2023-03-10T10:34:27.924Z,65.55
2023-03-10T10:36:55.435Z,64.73
2023-03-10T10:39:31.227Z,63.43
2023-03-10T10:42:13.063Z,60.16
2023-03-10T10:44:42.879Z,59.23
2023-03-10T10:47:35.855Z,59.87
2023-03-10T10:50:22.095Z,60.58
2023-03-10T10:52:49.897Z,59.68
2023-03-10T10:55:27.150Z,59.54
2023-03-10T10:57:54.848Z,55.38
2023-03-10T11:00:27.377Z,53.85
2023-03-10T11:02:54.157Z,50.33
2023-03-10T11:05:20.576Z,50.39
2023-03-10T11:07:47.098Z,49.25
2023-03-10T11:10:16.647Z,49.90
2023-03-10T11:12:46.102Z,50.53
2023-03-10T11:15:22.415Z,48.80
2023-03-10T11:17:54.677Z,46.73
2023-03-10T11:20:27.036Z,45.60
2023-03-10T11:23:03.820Z,43.85
2023-03-10T11:25:49.663Z,43.13
2023-03-10T11:28:15.992Z,43.58
2023-03-10T11:30:53.546Z,43.84
2023-03-10T11:33:27.424Z,42.37
2023-03-10T11:35:58.043Z,42.26
2023-03-10T11:38:32.253Z,41.13
2023-03-10T11:41:03.801Z,41.79
2023-03-10T11:43:44.225Z,40.33
2023-03-10T11:46:30.920Z,39.83
2023-03-10T11:49:06.052Z,38.75
2023-03-10T11:51:35.581Z,38.75
2023-03-10T11:54:13.955Z,41.70
2023-03-10T11:56:40.923Z,42.09
2023-03-10T11:59:16.932Z,43.05
2023-03-10T12:01:46.397Z,43.06
2023-03-10T12:04:19.582Z,44.95
2023-03-10T12:06:45.893Z,47.46
2023-03-10T12:09:16.361Z,49.32
2023-03-10T12:11:42.752Z,51.14
2023-03-10T12:14:11.785Z,52.98
2023-03-10T12:16:39.055Z,54.62
2023-03-10T12:19:05.536Z,56.49
2023-03-10T12:21:32.352Z,58.11
2023-03-10T12:24:00.534Z,59.68
2023-03-10T12:26:37.130Z,61.59
2023-03-10T12:29:15.931Z,63.90
2023-03-10T12:31:46.411Z,66.13
2023-03-10T12:34:23.120Z,67.57
2023-03-10T12:37:08.964Z,69.04
2023-03-10T12:39:39.739Z,71.11
2023-03-10T12:42:26.260Z,72.60
2023-03-10T12:44:53.059Z,74.16
2023-03-10T12:47:26.006Z,75.20
2023-03-10T12:49:55.106Z,76.49
2023-03-10T12:52:30.684Z,77.32
2023-03-10T12:55:17.458Z,78.21
2023-03-10T12:58:02.633Z,79.34
2023-03-10T13:00:29.613Z,80.38
2023-03-10T13:02:55.935Z,81.29
2023-03-10T13:05:24.563Z,82.15
2023-03-10T13:07:56.394Z,82.81
2023-03-10T13:10:24.405Z,83.59
2023-03-10T13:12:54.018Z,84.05
2023-03-10T13:15:26.122Z,84.75
2023-03-10T13:17:53.397Z,84.96
2023-03-10T13:20:20.631Z,85.31
2023-03-10T13:22:57.114Z,85.98
2023-03-10T13:25:24.316Z,86.48
2023-03-10T13:27:51.004Z,87.19
2023-03-10T13:30:22.174Z,87.80
2023-03-10T13:32:59.144Z,88.35
2023-03-10T13:35:29.888Z,89.00
2023-03-10T13:38:06.245Z,89.23
2023-03-10T13:40:33.550Z,89.38
2023-03-10T13:42:59.913Z,90.04
2023-03-10T13:45:26.234Z,90.16
2023-03-10T13:47:53.905Z,90.48
2023-03-10T13:50:20.564Z,90.75
2023-03-10T13:52:54.388Z,90.71
2023-03-10T13:55:23.120Z,90.95
2023-03-10T13:57:50.044Z,91.60
2023-03-10T14:00:18.211Z,91.54
2023-03-10T14:02:45.955Z,91.54
2023-03-10T14:05:31.241Z,91.51
2023-03-10T14:07:58.687Z,92.07
2023-03-10T14:10:25.115Z,92.02
2023-03-10T14:12:52.475Z,92.03
2023-03-10T14:15:19.388Z,91.79
2023-03-10T14:17:47.094Z,91.74
2023-03-10T14:20:27.628Z,91.91
2023-03-10T14:22:54.128Z,91.22
2023-03-10T14:25:21.257Z,90.57
2023-03-10T14:27:57.896Z,90.11
2023-03-10T14:30:25.766Z,89.75
2023-03-10T14:32:53.083Z,89.95
2023-03-10T14:35:20.416Z,89.48
2023-03-10T14:37:47.505Z,89.25
2023-03-10T14:40:14.085Z,87.72
2023-03-10T14:42:41.109Z,87.99
2023-03-10T14:45:13.825Z,87.38
2023-03-10T14:47:43.070Z,86.90
2023-03-10T14:50:13.618Z,86.32
2023-03-10T14:52:40.013Z,86.14
2023-03-10T14:55:08.182Z,85.61
2023-03-10T14:57:35.242Z,85.77
2023-03-10T15:00:01.546Z,85.33
2023-03-10T15:02:27.957Z,85.38
2023-03-10T15:04:54.319Z,85.69
2023-03-10T15:07:20.748Z,85.33
2023-03-10T15:09:47.177Z,84.78
2023-03-10T15:12:14.925Z,83.35
2023-03-10T15:14:44.148Z,84.38
2023-03-10T15:17:12.159Z,84.26
2023-03-10T15:19:38.639Z,84.01
2023-03-10T15:22:04.951Z,83.28
2023-03-10T15:24:31.385Z,83.05
2023-03-10T15:26:58.502Z,82.79
2023-03-10T15:29:25.346Z,83.01
2023-03-10T15:31:51.667Z,82.08
2023-03-10T15:34:19.644Z,81.95
2023-03-10T15:36:47.030Z,81.27
2023-03-10T15:39:21.998Z,81.38
2023-03-10T15:41:52.002Z,81.57
2023-03-10T15:44:18.320Z,81.38
2023-03-10T15:46:44.700Z,80.95
2023-03-10T15:49:11.166Z,80.81
2023-03-10T15:51:37.977Z,80.61
2023-03-10T15:54:04.492Z,80.51
2023-03-10T15:56:31.955Z,81.05
2023-03-10T15:58:58.448Z,81.03
2023-03-10T16:01:24.845Z,81.21
2023-03-10T16:03:52.429Z,81.18
2023-03-10T16:06:22.986Z,81.26
2023-03-10T16:08:49.381Z,81.42
2023-03-10T16:11:19.690Z,81.72
2023-03-10T16:13:46.504Z,81.81
2023-03-10T16:16:13.880Z,82.02
2023-03-10T16:18:40.293Z,81.84
2023-03-10T16:21:06.611Z,81.97
2023-03-10T16:23:33.061Z,82.06
2023-03-10T16:26:10.150Z,82.26
2023-03-10T16:28:37.833Z,82.30
2023-03-10T16:31:05.161Z,82.47
2023-03-10T16:33:31.950Z,82.67
2023-03-10T16:36:02.538Z,83.00
2023-03-10T16:38:29.093Z,83.22
2023-03-10T16:40:55.664Z,83.45
2023-03-10T16:43:22.031Z,83.74
2023-03-10T16:45:49.248Z,83.90
2023-03-10T16:48:17.136Z,84.23
2023-03-10T16:50:44.682Z,84.28
2023-03-10T16:53:11.098Z,84.53
2023-03-10T16:55:38.182Z,84.71
2023-03-10T16:58:05.436Z,84.94
2023-03-10T17:00:32.024Z,85.19
2023-03-10T17:02:58.494Z,85.26
2023-03-10T17:05:25.070Z,85.23
2023-03-10T17:07:55.944Z,85.56
2023-03-10T17:10:22.818Z,85.98
2023-03-10T17:12:49.310Z,86.08
2023-03-10T17:15:15.777Z,86.02
2023-03-10T17:17:42.377Z,86.34
2023-03-10T17:20:09.124Z,86.44
2023-03-10T17:22:37.800Z,86.72
2023-03-10T17:25:05.343Z,86.90
2023-03-10T17:27:31.711Z,87.19
2023-03-10T17:29:58.130Z,87.25
2023-03-10T17:32:24.606Z,87.53
2023-03-10T17:34:51.061Z,87.65
2023-03-10T17:37:18.076Z,87.31
2023-03-10T17:39:44.736Z,87.09
2023-03-10T17:42:11.184Z,86.75
2023-03-10T17:44:38.188Z,86.52
2023-03-10T17:47:05.970Z,86.40
2023-03-10T17:49:32.555Z,86.16
2023-03-10T17:51:59.213Z,85.98
2023-03-10T17:54:25.837Z,85.91
2023-03-10T17:56:52.448Z,86.03
2023-03-10T17:59:18.923Z,85.90
2023-03-10T18:01:46.486Z,85.94
2023-03-10T18:04:13.270Z,85.96
2023-03-10T18:06:39.714Z,85.75
2023-03-10T18:09:07.313Z,85.84
2023-03-10T18:11:34.038Z,86.02
2023-03-10T18:14:03.072Z,85.87
2023-03-10T18:16:31.916Z,86.08
2023-03-10T18:18:58.604Z,86.14
2023-03-10T18:21:25.516Z,85.93
2023-03-10T18:23:53.132Z,86.07
2023-03-10T18:26:21.272Z,86.17
2023-03-10T18:28:47.738Z,86.13
2023-03-10T18:31:33.063Z,86.24
2023-03-10T18:34:00.062Z,86.13
2023-03-10T18:36:28.196Z,85.97
2023-03-10T18:38:55.866Z,85.70
2023-03-10T18:41:24.908Z,85.63
2023-03-10T18:43:51.718Z,85.45
2023-03-10T18:46:18.789Z,85.18
2023-03-10T18:48:45.640Z,85.42
2023-03-10T18:51:13.357Z,85.30
2023-03-10T18:53:42.958Z,85.48
2023-03-10T18:56:10.235Z,85.86
2023-03-10T18:58:36.650Z,86.05
2023-03-10T19:01:03.171Z,86.21
2023-03-10T19:03:30.194Z,86.31
2023-03-10T19:05:56.618Z,86.48
2023-03-10T19:08:23.196Z,86.88
2023-03-10T19:10:56.550Z,86.73
2023-03-10T19:13:24.305Z,87.23
2023-03-10T19:15:50.878Z,87.37
2023-03-10T19:18:17.755Z,87.37
2023-03-10T19:20:44.448Z,87.72
2023-03-10T19:23:12.702Z,87.67
2023-03-10T19:25:39.231Z,87.68
2023-03-10T19:28:05.796Z,87.91
2023-03-10T19:30:32.347Z,88.29
2023-03-10T19:32:58.914Z,88.55
2023-03-10T19:35:25.777Z,88.60
2023-03-10T19:37:52.323Z,88.69
2023-03-10T19:40:19.950Z,88.81
2023-03-10T19:42:46.697Z,89.03
2023-03-10T19:45:15.165Z,89.06
2023-03-10T19:47:42.029Z,89.20
2023-03-10T19:50:10.146Z,89.63
2023-03-10T19:52:46.811Z,89.63
2023-03-10T19:55:14.451Z,89.69
2023-03-10T19:57:40.884Z,89.97
2023-03-10T20:00:07.735Z,90.26
2023-03-10T20:02:34.208Z,90.31
2023-03-10T20:05:00.612Z,90.52
2023-03-10T20:07:26.946Z,90.59
2023-03-10T20:09:53.322Z,90.80
2023-03-10T20:12:19.641Z,90.89
2023-03-10T20:14:46.099Z,90.99
2023-03-10T20:17:12.407Z,90.97
2023-03-10T20:19:39.602Z,91.29
2023-03-10T20:22:05.967Z,91.36
2023-03-10T20:24:32.323Z,91.81
2023-03-10T20:26:58.673Z,91.69
2023-03-10T20:29:25.132Z,91.93
2023-03-10T20:31:51.518Z,92.12
2023-03-10T20:34:18.401Z,91.98
2023-03-10T20:36:44.806Z,92.45
2023-03-10T20:39:11.136Z,92.55
2023-03-10T20:41:37.624Z,92.79
2023-03-10T20:44:04.071Z,92.70
2023-03-10T20:46:30.406Z,92.96
2023-03-10T20:48:56.828Z,93.03
2023-03-10T20:51:23.746Z,93.16
2023-03-10T20:53:50.039Z,93.39
2023-03-10T20:56:16.774Z,93.61
2023-03-10T20:58:43.169Z,93.76
2023-03-10T21:01:17.556Z,93.98
2023-03-10T21:03:44.189Z,94.13
2023-03-10T21:06:10.525Z,94.08
2023-03-10T21:08:36.854Z,94.21
2023-03-10T21:11:04.369Z,94.35
2023-03-10T21:13:30.834Z,94.53
2023-03-10T21:16:01.484Z,94.63
2023-03-10T21:18:29.085Z,94.78
2023-03-10T21:20:55.489Z,94.86
2023-03-10T21:23:21.847Z,94.74
2023-03-10T21:25:49.370Z,95.12
2023-03-10T21:28:15.636Z,94.99
2023-03-10T21:30:42.040Z,95.19
2023-03-10T21:33:08.369Z,95.39
2023-03-10T21:35:34.681Z,95.56
2023-03-10T21:38:01.007Z,95.63
2023-03-10T21:40:27.461Z,95.73
2023-03-10T21:42:53.801Z,95.79
2023-03-10T21:45:21.696Z,95.75
2023-03-10T21:47:48.246Z,96.09
2023-03-10T21:50:15.195Z,96.23
2023-03-10T21:52:41.644Z,96.25
2023-03-10T21:55:12.255Z,96.51
2023-03-10T21:57:38.597Z,96.44
2023-03-10T22:00:05.736Z,96.60
2023-03-10T22:02:36.153Z,96.72
2023-03-10T22:05:03.099Z,96.72
2023-03-10T22:07:29.449Z,96.77
2023-03-10T22:09:55.816Z,96.68
2023-03-10T22:12:22.141Z,96.41
2023-03-10T22:14:48.504Z,96.49
2023-03-10T22:17:14.923Z,96.56
2023-03-10T22:19:41.269Z,96.68
2023-03-10T22:22:07.625Z,96.93
2023-03-10T22:24:33.941Z,97.09
2023-03-10T22:27:00.197Z,97.17
2023-03-10T22:29:26.477Z,97.29
2023-03-10T22:31:52.790Z,97.03
2023-03-10T22:34:19.147Z,97.15
2023-03-10T22:36:45.435Z,97.13
2023-03-10T22:39:11.710Z,97.27
2023-03-10T22:41:38.790Z,97.13
2023-03-10T22:44:05.237Z,97.30
2023-03-10T22:46:31.576Z,97.51
2023-03-10T22:48:58.471Z,97.53
2023-03-10T22:51:24.780Z,97.74
2023-03-10T22:53:51.328Z,97.61
2023-03-10T22:56:20.092Z,97.48
2023-03-10T22:58:46.396Z,97.74
2023-03-10T23:01:15.244Z,97.71
2023-03-10T23:03:41.607Z,97.69
2023-03-10T23:06:08.009Z,97.83
2023-03-10T23:08:34.561Z,97.92
2023-03-10T23:11:00.780Z,97.79
2023-03-10T23:13:27.094Z,97.62
2023-03-10T23:15:53.506Z,97.74
2023-03-10T23:18:19.818Z,97.91
2023-03-10T23:20:46.911Z,97.85
2023-03-10T23:23:13.547Z,97.70
2023-03-10T23:25:41.691Z,97.71
2023-03-10T23:28:09.746Z,97.88
2023-03-10T23:30:37.786Z,97.94
2023-03-10T23:33:04.230Z,98.12
2023-03-10T23:35:31.569Z,98.18
2023-03-10T23:37:58.568Z,97.90
2023-03-10T23:40:25.536Z,98.01
2023-03-10T23:42:52.655Z,97.88
2023-03-10T23:45:20.458Z,97.97
2023-03-10T23:47:47.315Z,98.06
2023-03-10T23:50:16.143Z,98.15
2023-03-10T23:52:42.916Z,98.11
2023-03-10T23:55:12.287Z,98.34
2023-03-10T23:57:38.524Z,98.43
